Glentanner Airport


Codes: NZGT/GTN
Name: Glentanner Airport
City: Glentanner Station
Country: New Zealand
Elevation: 1824 ft.
Wikipedia:

Photos at Glentanner Airport


   Photos courtesy of SpottingLog. You can add your own sightings and photos by signing up for a free trial today.



No photos found.

Weather at Glentanner Airport


Time (UTC)DescriptionTempratureWindCloud coverageVisibilityPressureHumidity
26-Jun-2024 00:00Broken Clouds6°C2 mph, N58%10000m1025hPa94%
26-Jun-2024 03:00Broken Clouds6°C0 mph, NE52%10000m1025hPa94%
26-Jun-2024 06:00Scattered Clouds4°C4 mph, N44%10000m1026hPa93%
26-Jun-2024 09:00Few Clouds2°C4 mph, N15%10000m1027hPa89%
26-Jun-2024 12:00Few Clouds3°C7 mph, NW14%10000m1027hPa86%
26-Jun-2024 15:00Clear Sky2°C7 mph, NW9%10000m1027hPa87%
26-Jun-2024 18:00Few Clouds2°C7 mph, NW18%10000m1027hPa88%
26-Jun-2024 21:00Clear Sky3°C7 mph, NW5%10000m1027hPa88%
27-Jun-2024 00:00Clear Sky7°C4 mph, NW3%10000m1025hPa91%
27-Jun-2024 03:00Clear Sky7°C4 mph, NW2%10000m1023hPa88%
27-Jun-2024 06:00Clear Sky4°C9 mph, NW4%10000m1025hPa90%
27-Jun-2024 09:00Broken Clouds3°C11 mph, NW60%10000m1025hPa89%
27-Jun-2024 12:00Broken Clouds3°C11 mph, NW62%10000m1024hPa87%
27-Jun-2024 15:00Overcast Clouds4°C11 mph, NW100%10000m1023hPa87%
27-Jun-2024 18:00Overcast Clouds4°C11 mph, NW100%10000m1022hPa87%
27-Jun-2024 21:00Overcast Clouds4°C11 mph, NW100%10000m1021hPa86%
28-Jun-2024 00:00Overcast Clouds7°C11 mph, NW100%10000m1018hPa83%
28-Jun-2024 03:00Light Rain6°C11 mph, NW90%4527m1017hPa93%
28-Jun-2024 06:00Moderate Rain5°C7 mph, NW91%5633m1016hPa97%
28-Jun-2024 09:00Moderate Rain5°C4 mph, NW100%2274m1016hPa99%
28-Jun-2024 12:00Light Rain6°C2 mph, N100%0m1016hPa99%
28-Jun-2024 15:00Overcast Clouds5°C2 mph, W100%4988m1017hPa98%
28-Jun-2024 18:00Overcast Clouds5°C0 mph, SW100%4516m1017hPa94%
28-Jun-2024 21:00Overcast Clouds5°C0 mph, N100%0m1020hPa99%
29-Jun-2024 00:00Overcast Clouds5°C2 mph, S89%10000m1020hPa93%
29-Jun-2024 03:00Overcast Clouds5°C2 mph, SE89%10000m1020hPa91%
29-Jun-2024 06:00Overcast Clouds3°C4 mph, N93%10000m1021hPa90%
29-Jun-2024 09:00Scattered Clouds1°C7 mph, NW25%10000m1023hPa86%
29-Jun-2024 12:00Broken Clouds3°C7 mph, NW52%10000m1022hPa89%
29-Jun-2024 15:00Overcast Clouds4°C9 mph, NW100%10000m1021hPa92%
29-Jun-2024 18:00Overcast Clouds4°C9 mph, NW100%10000m1021hPa89%
29-Jun-2024 21:00Overcast Clouds4°C7 mph, NW100%10000m1022hPa90%
30-Jun-2024 00:00Overcast Clouds6°C7 mph, NW100%10000m1021hPa79%
30-Jun-2024 03:00Overcast Clouds6°C7 mph, NW100%10000m1019hPa86%
30-Jun-2024 06:00Overcast Clouds5°C9 mph, NW90%10000m1020hPa89%
30-Jun-2024 09:00Broken Clouds4°C9 mph, NW65%10000m1020hPa92%
30-Jun-2024 12:00Broken Clouds5°C11 mph, NW79%10000m1019hPa93%
30-Jun-2024 15:00Overcast Clouds5°C11 mph, NW90%10000m1017hPa93%
30-Jun-2024 18:00Light Rain6°C11 mph, NW96%5988m1015hPa95%
30-Jun-2024 21:00Light Rain6°C13 mph, NW100%5969m1013hPa95%